Time;durP1;ratioP1;P1;durP2;ratioP2;P2;SDS_P1;SDS_P2;PMS_P1;PMS_P2;Temp;Humidity;BMP_temperature;BMP_pressure;BME280_temperature;BME280_humidity;BME280_pressure;Samples;Min_cycle;Max_cycle;Signal;HPM_P1;HPM_P2
2022/01/08 00:02:12;;;;;;;5.78;2.53;;;2.50;99.90;;;;;;5134760;27;20039;-77
2022/01/08 00:04:38;;;;;;;5.90;3.10;;;3.10;99.90;;;;;;5116573;27;20047;-78
2022/01/08 00:07:04;;;;;;;5.07;2.70;;;3.10;99.90;;;;;;5099838;27;20047;-78
2022/01/08 00:09:30;;;;;;;7.45;3.97;;;3.00;99.90;;;;;;5100737;27;20103;-79
2022/01/08 00:11:55;;;;;;;9.95;3.38;;;2.80;99.90;;;;;;5083520;27;20047;-78
2022/01/08 00:14:23;;;;;;;10.57;4.15;;;2.70;99.90;;;;;;5135443;27;20079;-79
2022/01/08 00:16:48;;;;;;;11.95;4.30;;;2.80;99.90;;;;;;5084576;27;20043;-77
2022/01/08 00:19:14;;;;;;;8.20;3.55;;;2.40;99.90;;;;;;5100079;28;20104;-78
2022/01/08 00:21:40;;;;;;;7.90;3.92;;;3.20;99.90;;;;;;5118089;27;20053;-78
2022/01/08 00:24:06;;;;;;;8.52;3.95;;;2.50;99.90;;;;;;5135394;27;20122;-78
2022/01/08 00:26:32;;;;;;;8.18;3.75;;;3.50;99.90;;;;;;5135718;27;20039;-78
2022/01/08 00:28:59;;;;;;;6.10;2.97;;;2.80;99.90;;;;;;5100005;27;20451;-78
2022/01/08 00:31:25;;;;;;;8.50;3.45;;;2.80;99.90;;;;;;5135047;27;20108;-78
2022/01/08 00:33:52;;;;;;;6.35;2.80;;;2.10;99.90;;;;;;5134602;27;20035;-78
2022/01/08 00:36:18;;;;;;;6.85;3.03;;;2.60;99.90;;;;;;5117420;28;20130;-78
2022/01/08 00:38:44;;;;;;;5.50;2.30;;;3.20;99.90;;;;;;5116620;27;20376;-78
2022/01/08 00:41:09;;;;;;;3.90;2.10;;;3.40;99.90;;;;;;5099532;28;20124;-77
2022/01/08 00:43:36;;;;;;;4.78;1.90;;;2.40;99.90;;;;;;5100126;28;20039;-77
2022/01/08 00:46:02;;;;;;;8.43;2.58;;;2.20;99.90;;;;;;5116728;28;20097;-77
2022/01/08 00:48:28;;;;;;;5.78;2.33;;;2.50;99.90;;;;;;5116342;28;20487;-78
2022/01/08 00:50:53;;;;;;;4.80;1.83;;;2.20;99.90;;;;;;5116398;28;20039;-77
2022/01/08 00:53:20;;;;;;;3.50;1.55;;;2.70;99.90;;;;;;5099267;28;20083;-78
2022/01/08 00:55:46;;;;;;;3.53;1.30;;;2.40;99.90;;;;;;5099056;28;20054;-77
2022/01/08 00:58:11;;;;;;;6.45;1.60;;;2.40;99.90;;;;;;5134484;28;20078;-77
2022/01/08 01:00:37;;;;;;;5.28;1.60;;;2.60;99.90;;;;;;5116280;28;20035;-77
2022/01/08 01:03:03;;;;;;;5.20;1.77;;;2.40;99.90;;;;;;5116146;28;20076;-78
2022/01/08 01:05:30;;;;;;;3.63;2.03;;;2.90;99.90;;;;;;5099019;28;20115;-77
2022/01/08 01:07:56;;;;;;;5.22;2.10;;;2.30;99.90;;;;;;5134869;28;20147;-77
2022/01/08 01:10:22;;;;;;;3.28;1.60;;;2.90;99.90;;;;;;5134578;28;20082;-77
2022/01/08 01:12:47;;;;;;;5.75;1.70;;;2.70;99.90;;;;;;5134335;28;20097;-77
2022/01/08 01:15:16;;;;;;;2.90;1.92;;;3.00;99.90;;;;;;5134237;28;20467;-78
2022/01/08 01:17:44;;;;;;;4.05;1.95;;;2.80;99.90;;;;;;5134294;28;20128;-77
2022/01/08 01:20:12;;;;;;;4.03;1.83;;;2.20;99.90;;;;;;5115942;28;20047;-77
2022/01/08 01:22:46;;;;;;;1.98;1.60;;;2.50;99.90;;;;;;5098848;28;20479;-76
2022/01/08 01:25:17;;;;;;;2.60;1.42;;;2.20;99.90;;;;;;5116563;28;20096;-77
2022/01/08 01:30:17;;;;;;;2.85;1.30;;;2.60;99.90;;;;;;5100280;28;20051;-77
2022/01/08 01:49:07;;;;;;;3.97;1.20;;;2.30;99.90;;;;;;5116431;28;20486;-76
2022/01/08 01:51:33;;;;;;;4.60;1.40;;;3.10;99.90;;;;;;5116146;28;20058;-79
2022/01/08 01:53:59;;;;;;;2.10;1.13;;;2.10;99.90;;;;;;5116402;27;20394;-78
2022/01/08 01:56:25;;;;;;;3.92;1.38;;;2.30;99.90;;;;;;5138175;27;20051;-78
2022/01/08 01:58:51;;;;;;;2.40;1.50;;;2.30;99.90;;;;;;5119469;27;20224;-77
2022/01/08 02:01:17;;;;;;;2.63;1.30;;;2.70;99.90;;;;;;5137595;27;20047;-77
2022/01/08 02:03:43;;;;;;;4.10;1.42;;;2.30;99.90;;;;;;5137852;27;20108;-77
2022/01/08 02:06:09;;;;;;;1.70;1.17;;;1.90;99.90;;;;;;5138296;27;20429;-76
2022/01/08 02:08:38;;;;;;;2.50;1.15;;;2.60;99.90;;;;;;5119397;27;20046;-78
2022/01/08 02:11:04;;;;;;;3.92;1.55;;;2.10;99.90;;;;;;5137329;27;20046;-77
2022/01/08 02:13:31;;;;;;;2.97;1.52;;;2.10;99.90;;;;;;5102202;27;20047;-77
2022/01/08 02:16:00;;;;;;;5.45;1.25;;;2.20;99.90;;;;;;5137326;27;20051;-78
2022/01/08 02:18:25;;;;;;;3.90;1.40;;;2.20;99.90;;;;;;5137307;27;20159;-77
2022/01/08 02:20:57;;;;;;;2.97;1.55;;;2.20;99.90;;;;;;5119003;27;20153;-78
2022/01/08 02:23:26;;;;;;;4.28;1.60;;;2.10;99.90;;;;;;5119026;27;20094;-77
2022/01/08 02:26:05;;;;;;;3.65;1.25;;;2.30;99.90;;;;;;5118926;27;20043;-77
2022/01/08 02:28:30;;;;;;;2.58;1.08;;;2.50;99.90;;;;;;5119384;27;20043;-77
2022/01/08 02:30:56;;;;;;;4.93;1.70;;;2.20;99.90;;;;;;5118938;27;20496;-78
2022/01/08 02:33:29;;;;;;;3.50;1.77;;;2.10;99.90;;;;;;5118665;27;20450;-77
2022/01/08 02:35:56;;;;;;;4.63;1.92;;;2.20;99.90;;;;;;5137569;27;20073;-78
2022/01/08 02:38:23;;;;;;;3.67;1.70;;;2.50;99.90;;;;;;5136579;27;20050;-78
2022/01/08 02:41:00;;;;;;;2.80;1.58;;;2.40;99.90;;;;;;5136765;27;20564;-78
2022/01/08 02:43:27;;;;;;;3.85;1.92;;;2.50;99.90;;;;;;5119556;27;20176;-78
2022/01/08 02:45:53;;;;;;;3.92;2.10;;;2.30;99.90;;;;;;5118846;27;20058;-78
2022/01/08 02:48:19;;;;;;;6.00;2.25;;;2.40;99.90;;;;;;5118592;27;20386;-78
2022/01/08 02:50:46;;;;;;;3.72;2.25;;;2.20;99.90;;;;;;5118328;27;20130;-78
2022/01/08 02:53:12;;;;;;;4.30;1.73;;;2.10;99.90;;;;;;5118451;27;20061;-79
2022/01/08 02:55:38;;;;;;;4.68;2.13;;;3.20;99.90;;;;;;5117894;27;20450;-77
2022/01/08 02:58:04;;;;;;;3.58;2.13;;;3.00;99.90;;;;;;5136179;27;20057;-77
2022/01/08 03:00:30;;;;;;;4.30;2.30;;;2.00;99.90;;;;;;5101344;27;20047;-77
2022/01/08 03:02:56;;;;;;;4.82;3.03;;;2.20;99.90;;;;;;5118345;27;20376;-78
2022/01/08 03:05:23;;;;;;;5.65;2.35;;;3.20;99.90;;;;;;5118384;27;20532;-78
2022/01/08 03:07:49;;;;;;;5.63;2.35;;;2.10;99.90;;;;;;5136260;27;20055;-77
2022/01/08 03:10:17;;;;;;;6.30;2.30;;;2.20;99.90;;;;;;5136403;27;20054;-78
2022/01/08 03:12:44;;;;;;;4.90;2.55;;;2.00;99.90;;;;;;5117859;27;20050;-77
2022/01/08 03:15:16;;;;;;;4.45;2.85;;;2.10;99.90;;;;;;5136060;27;20036;-77
2022/01/08 03:17:42;;;;;;;8.07;3.13;;;2.10;99.90;;;;;;5117789;27;20043;-77
2022/01/08 03:20:11;;;;;;;5.28;2.85;;;2.40;99.90;;;;;;5117380;27;20050;-77
2022/01/08 03:22:39;;;;;;;3.70;2.33;;;2.30;99.90;;;;;;5085203;27;20046;-78
2022/01/08 03:25:06;;;;;;;7.85;3.00;;;2.90;99.90;;;;;;5135986;27;20392;-77
2022/01/08 03:27:32;;;;;;;5.78;3.15;;;2.30;99.90;;;;;;5136176;27;20050;-78
2022/01/08 03:29:58;;;;;;;4.88;3.17;;;2.20;99.90;;;;;;5136368;27;20039;-78
2022/01/08 03:32:24;;;;;;;7.47;3.33;;;2.30;99.90;;;;;;5136282;27;20043;-78
2022/01/08 03:34:50;;;;;;;5.95;3.13;;;2.30;99.90;;;;;;5117445;27;20475;-78
2022/01/08 03:37:16;;;;;;;5.25;3.38;;;2.30;99.90;;;;;;5135804;27;20115;-78
2022/01/08 03:39:42;;;;;;;4.70;2.75;;;3.10;99.90;;;;;;5117417;27;20467;-77
2022/01/08 03:42:08;;;;;;;6.25;3.15;;;2.20;99.90;;;;;;5100373;27;20043;-77
2022/01/08 03:44:33;;;;;;;6.88;3.15;;;2.80;99.90;;;;;;5100326;27;20054;-77
2022/01/08 03:47:22;;;;;;;5.10;3.20;;;2.20;99.90;;;;;;5136346;27;20050;-77
2022/01/08 03:49:45;;;;;;;4.97;3.05;;;2.20;99.90;;;;;;5117232;27;20054;-77
2022/01/08 03:52:12;;;;;;;4.85;3.13;;;2.20;99.90;;;;;;5117158;27;20047;-78
2022/01/08 03:54:38;;;;;;;6.60;3.38;;;2.30;99.90;;;;;;5135330;27;20078;-77
2022/01/08 03:57:04;;;;;;;5.00;3.28;;;2.00;99.90;;;;;;5135888;27;20047;-77
2022/01/08 03:59:30;;;;;;;4.70;3.33;;;2.10;99.90;;;;;;5135841;27;20077;-78
2022/01/08 04:01:57;;;;;;;4.80;2.63;;;1.90;99.90;;;;;;5117067;27;20079;-78
2022/01/08 04:04:23;;;;;;;5.30;3.03;;;2.40;99.90;;;;;;5134988;27;20039;-77
2022/01/08 04:06:48;;;;;;;5.72;3.00;;;1.90;99.90;;;;;;5117037;27;20055;-78
2022/01/08 04:09:14;;;;;;;5.82;2.63;;;1.90;99.90;;;;;;5100831;27;20058;-74
2022/01/08 04:11:40;;;;;;;4.40;2.50;;;2.40;99.90;;;;;;5135101;27;20039;-77
2022/01/08 04:14:06;;;;;;;6.32;2.35;;;2.30;99.90;;;;;;5099499;27;20494;-77
2022/01/08 04:16:35;;;;;;;4.45;2.53;;;2.30;99.90;;;;;;5083234;28;20043;-77
2022/01/08 04:19:01;;;;;;;4.45;2.22;;;2.40;99.90;;;;;;5117136;27;20118;-77
2022/01/08 04:24:06;;;;;;;3.50;2.28;;;2.00;99.90;;;;;;5100738;27;20047;-77
2022/01/08 04:26:32;;;;;;;3.03;1.90;;;1.90;99.90;;;;;;5117445;27;20047;-78
2022/01/08 04:28:57;;;;;;;4.00;1.83;;;2.50;99.90;;;;;;5116404;27;20502;-77
2022/01/08 04:31:24;;;;;;;3.95;1.73;;;1.80;99.90;;;;;;5099691;27;20047;-77
2022/01/08 04:33:52;;;;;;;3.85;2.00;;;1.90;99.90;;;;;;5117082;27;20083;-77
2022/01/08 04:36:18;;;;;;;3.63;2.05;;;2.70;99.90;;;;;;5116451;27;20054;-77
2022/01/08 04:38:44;;;;;;;4.00;1.90;;;1.90;99.90;;;;;;5116612;28;20053;-78
2022/01/08 04:41:10;;;;;;;5.53;2.50;;;2.30;99.90;;;;;;5135142;27;20379;-77
2022/01/08 04:43:37;;;;;;;2.75;1.90;;;1.90;99.90;;;;;;5134898;27;20043;-77
2022/01/08 04:46:04;;;;;;;3.33;1.75;;;1.90;99.90;;;;;;5116756;28;20150;-78
2022/01/08 04:48:30;;;;;;;5.80;2.13;;;2.50;99.90;;;;;;5116480;28;20074;-77
2022/01/08 04:50:56;;;;;;;4.03;1.73;;;2.40;99.90;;;;;;5134575;28;20075;-77
2022/01/08 04:53:22;;;;;;;3.17;1.73;;;2.00;99.90;;;;;;5134604;28;20039;-77
2022/01/08 04:55:48;;;;;;;6.15;2.33;;;2.00;99.90;;;;;;5116767;28;20076;-77
2022/01/08 04:58:14;;;;;;;4.35;1.95;;;1.50;99.90;;;;;;5134449;28;20047;-77
2022/01/08 05:00:39;;;;;;;4.60;2.10;;;1.80;99.90;;;;;;5116121;28;20043;-77
2022/01/08 05:03:05;;;;;;;2.00;1.45;;;1.70;99.90;;;;;;5134444;28;20066;-77
2022/01/08 05:05:31;;;;;;;3.08;1.30;;;1.70;99.90;;;;;;5134726;28;20055;-78
2022/01/08 05:07:57;;;;;;;2.50;1.33;;;1.90;99.90;;;;;;5099206;28;20051;-77
2022/01/08 05:10:23;;;;;;;4.53;1.58;;;2.70;99.90;;;;;;5116048;28;20043;-76
2022/01/08 05:12:49;;;;;;;4.32;1.50;;;2.00;99.90;;;;;;5134388;28;20043;-77
2022/01/08 05:15:16;;;;;;;3.10;1.30;;;1.60;99.90;;;;;;5115940;28;20463;-78
2022/01/08 05:17:43;;;;;;;3.58;1.20;;;1.80;99.90;;;;;;5134321;28;20035;-77
2022/01/08 05:20:12;;;;;;;2.67;1.23;;;1.70;99.90;;;;;;5134358;28;20104;-78
2022/01/08 05:22:52;;;;;;;2.70;1.40;;;1.80;99.90;;;;;;5117024;28;20051;-78
2022/01/08 05:25:20;;;;;;;3.30;1.45;;;2.50;99.90;;;;;;5117002;28;20067;-77
2022/01/08 05:27:48;;;;;;;1.92;1.35;;;1.90;99.90;;;;;;5134239;27;20043;-77
2022/01/08 05:30:16;;;;;;;4.60;1.20;;;1.80;99.90;;;;;;5118751;27;20064;-77
2022/01/08 05:32:42;;;;;;;4.10;1.25;;;2.30;99.90;;;;;;5138143;27;20039;-77
2022/01/08 05:35:08;;;;;;;3.85;1.27;;;2.00;99.90;;;;;;5137965;27;20043;-77
2022/01/08 05:37:34;;;;;;;2.47;1.02;;;1.80;99.90;;;;;;5120001;27;20047;-78
2022/01/08 05:40:00;;;;;;;2.17;0.95;;;1.80;99.90;;;;;;5137977;27;20043;-77
2022/01/08 05:42:26;;;;;;;3.25;1.30;;;2.10;99.90;;;;;;5137928;27;20470;-78
2022/01/08 05:44:51;;;;;;;4.47;1.02;;;2.20;99.90;;;;;;5137847;27;20043;-78
2022/01/08 05:47:20;;;;;;;3.70;1.05;;;2.10;99.90;;;;;;5137901;27;20051;-78
2022/01/08 05:49:46;;;;;;;2.80;1.08;;;1.80;99.90;;;;;;5137851;27;20049;-77
2022/01/08 05:52:11;;;;;;;2.42;1.00;;;1.90;99.90;;;;;;5137507;27;20043;-77
2022/01/08 05:54:37;;;;;;;3.88;1.10;;;1.90;99.90;;;;;;5102538;27;20039;-77
2022/01/08 05:57:03;;;;;;;4.53;0.95;;;1.60;99.90;;;;;;5120163;27;20042;-77
2022/01/08 05:59:29;;;;;;;3.35;1.13;;;1.70;99.90;;;;;;5119595;27;20064;-78
2022/01/08 06:01:56;;;;;;;1.95;0.90;;;2.00;99.90;;;;;;5138398;27;20122;-76
2022/01/08 06:04:22;;;;;;;2.55;1.10;;;2.00;99.90;;;;;;5137453;27;20051;-77
2022/01/08 06:06:48;;;;;;;3.17;1.00;;;2.40;99.90;;;;;;5137617;27;20091;-77
2022/01/08 06:09:14;;;;;;;4.00;1.05;;;2.20;99.90;;;;;;5137194;27;20075;-78
2022/01/08 06:11:40;;;;;;;3.13;1.40;;;2.10;99.90;;;;;;5137883;27;20050;-77
2022/01/08 06:14:06;;;;;;;3.60;1.10;;;2.10;99.90;;;;;;5102151;27;20395;-77
2022/01/08 06:16:37;;;;;;;3.38;1.10;;;1.70;99.90;;;;;;5102194;27;20051;-77
2022/01/08 06:19:11;;;;;;;4.38;1.30;;;1.80;99.90;;;;;;5137626;27;20424;-77
2022/01/08 06:21:37;;;;;;;2.00;1.20;;;1.90;99.90;;;;;;5119797;27;20102;-77
2022/01/08 06:24:04;;;;;;;3.35;1.48;;;2.10;99.90;;;;;;5137173;27;20079;-77
2022/01/08 06:26:30;;;;;;;2.38;1.27;;;1.70;99.90;;;;;;5137163;27;20047;-77
2022/01/08 06:28:56;;;;;;;3.22;1.40;;;1.80;99.90;;;;;;5118849;27;20047;-78
2022/01/08 06:31:23;;;;;;;3.35;1.25;;;3.00;99.90;;;;;;5137299;27;20071;-78
2022/01/08 06:33:49;;;;;;;4.53;1.48;;;2.10;99.90;;;;;;5118855;27;20104;-77
2022/01/08 06:36:19;;;;;;;4.05;1.73;;;1.70;99.90;;;;;;5118881;27;20047;-77
2022/01/08 06:38:45;;;;;;;4.78;1.50;;;2.20;99.90;;;;;;5119060;27;20107;-77
2022/01/08 06:41:11;;;;;;;3.92;1.48;;;2.20;99.90;;;;;;5136354;27;20482;-77
2022/01/08 06:43:37;;;;;;;3.47;1.75;;;2.90;99.90;;;;;;5136451;27;20122;-77
2022/01/08 06:46:03;;;;;;;4.50;1.60;;;1.60;99.90;;;;;;5084738;27;20058;-77
2022/01/08 06:48:29;;;;;;;7.22;2.40;;;1.80;99.90;;;;;;5136723;27;20047;-77
2022/01/08 06:50:54;;;;;;;7.60;2.40;;;2.30;99.90;;;;;;5118655;27;20095;-77
2022/01/08 06:53:20;;;;;;;3.90;2.03;;;2.10;99.90;;;;;;5136626;27;20395;-77
2022/01/08 06:55:46;;;;;;;4.85;2.50;;;1.90;99.90;;;;;;5101297;27;20043;-77
2022/01/08 06:58:12;;;;;;;5.30;2.30;;;1.80;99.90;;;;;;5084669;27;20035;-77
2022/01/08 07:00:38;;;;;;;6.07;2.00;;;2.10;99.90;;;;;;5118298;27;20036;-77
2022/01/08 07:03:05;;;;;;;7.95;2.13;;;2.60;99.90;;;;;;5136384;27;20360;-77
2022/01/08 07:05:31;;;;;;;4.45;2.47;;;1.90;99.90;;;;;;5118084;27;20066;-78
2022/01/08 07:07:57;;;;;;;6.20;2.55;;;2.10;99.90;;;;;;5118118;27;20043;-76
2022/01/08 07:10:23;;;;;;;5.72;2.60;;;2.30;99.90;;;;;;5136163;27;20050;-77
2022/01/08 07:12:48;;;;;;;8.20;2.83;;;2.50;99.90;;;;;;5136230;27;20474;-77
2022/01/08 07:15:14;;;;;;;7.20;2.88;;;2.20;99.90;;;;;;5100840;27;20078;-77
2022/01/08 07:17:40;;;;;;;7.38;3.22;;;2.50;99.90;;;;;;5117958;27;20110;-77
2022/01/08 07:20:07;;;;;;;8.75;3.38;;;2.00;99.90;;;;;;5117688;27;20074;-77
2022/01/08 07:22:34;;;;;;;8.55;3.40;;;1.90;99.90;;;;;;5117731;27;20055;-77
2022/01/08 07:24:59;;;;;;;9.63;3.45;;;2.80;99.90;;;;;;5136036;27;20121;-78
2022/01/08 07:27:28;;;;;;;7.82;2.72;;;2.30;99.90;;;;;;5084079;27;20470;-77
2022/01/08 07:29:54;;;;;;;12.05;3.13;;;2.00;99.90;;;;;;5117020;27;20559;-77
2022/01/08 07:32:20;;;;;;;12.85;4.55;;;2.10;99.90;;;;;;5136393;27;20043;-77
2022/01/08 07:34:46;;;;;;;4.93;3.05;;;2.10;99.90;;;;;;5117685;27;20074;-77
2022/01/08 07:37:12;;;;;;;6.68;3.22;;;2.50;99.90;;;;;;5100712;27;20058;-77
2022/01/08 07:39:37;;;;;;;10.95;3.30;;;2.20;99.90;;;;;;5136210;27;20061;-76
2022/01/08 07:42:03;;;;;;;7.60;3.28;;;2.00;99.90;;;;;;5117500;27;20047;-76
2022/01/08 07:44:29;;;;;;;7.57;3.28;;;1.90;99.90;;;;;;5117361;27;20035;-77
2022/01/08 07:46:57;;;;;;;8.10;3.28;;;2.20;99.90;;;;;;5100315;27;20147;-77
2022/01/08 07:49:23;;;;;;;9.88;3.03;;;2.10;99.90;;;;;;5117598;27;20129;-77
2022/01/08 07:51:49;;;;;;;8.95;3.38;;;2.00;99.90;;;;;;5135246;27;20089;-77
2022/01/08 07:54:15;;;;;;;8.40;3.03;;;2.70;99.90;;;;;;5135310;27;20049;-76
2022/01/08 07:56:40;;;;;;;6.60;3.38;;;1.80;99.90;;;;;;5116908;27;20082;-75
2022/01/08 07:59:06;;;;;;;10.15;3.15;;;1.90;99.90;;;;;;5100040;27;20083;-76
2022/01/08 08:01:32;;;;;;;9.68;3.13;;;2.00;99.90;;;;;;5083865;27;20042;-76
2022/01/08 08:03:58;;;;;;;7.00;3.25;;;2.00;99.90;;;;;;5117185;27;20043;-75
2022/01/08 08:06:24;;;;;;;5.38;2.90;;;2.10;99.90;;;;;;5116507;27;20050;-76
2022/01/08 08:08:49;;;;;;;10.43;3.28;;;2.10;99.90;;;;;;5117074;27;20046;-76
2022/01/08 08:11:15;;;;;;;3.97;2.45;;;2.10;99.90;;;;;;5117135;27;20467;-76
2022/01/08 08:13:41;;;;;;;7.25;2.00;;;2.00;99.90;;;;;;5099614;27;20070;-76
2022/01/08 08:16:07;;;;;;;4.53;2.17;;;2.30;99.90;;;;;;5134636;27;20099;-76
2022/01/08 08:18:33;;;;;;;5.13;2.28;;;2.40;99.90;;;;;;5116877;27;20046;-76
2022/01/08 08:20:59;;;;;;;9.38;2.47;;;2.00;99.90;;;;;;5117222;27;20043;-76
2022/01/08 08:23:24;;;;;;;5.28;2.95;;;2.40;99.90;;;;;;5134897;27;20051;-77
2022/01/08 08:25:50;;;;;;;8.77;2.90;;;2.60;99.90;;;;;;5116793;27;20073;-76
2022/01/08 08:28:16;;;;;;;5.10;2.70;;;2.30;99.90;;;;;;5134822;27;20043;-76
2022/01/08 08:30:42;;;;;;;7.65;2.17;;;2.60;99.90;;;;;;5134858;27;20046;-77
2022/01/08 08:33:07;;;;;;;6.90;2.58;;;2.10;99.90;;;;;;5134801;27;20068;-76
2022/01/08 08:35:33;;;;;;;4.57;2.45;;;2.10;99.90;;;;;;5116036;27;20039;-77
2022/01/08 08:37:59;;;;;;;4.70;2.53;;;2.10;99.90;;;;;;5117282;27;20050;-77
2022/01/08 08:40:26;;;;;;;5.25;1.95;;;2.20;99.90;;;;;;5135230;27;20039;-76
2022/01/08 08:42:51;;;;;;;5.72;2.30;;;2.10;99.90;;;;;;5116409;27;20047;-77
2022/01/08 08:45:18;;;;;;;5.68;2.00;;;3.80;99.90;;;;;;5116771;27;20035;-77
2022/01/08 08:47:44;;;;;;;6.03;2.28;;;2.00;99.90;;;;;;5134584;27;20054;-77
2022/01/08 08:50:13;;;;;;;7.47;2.38;;;2.20;99.90;;;;;;5134838;27;20043;-77
2022/01/08 08:52:40;;;;;;;6.47;2.33;;;3.20;99.90;;;;;;5135657;28;20043;-77
2022/01/08 08:55:06;;;;;;;5.88;2.65;;;2.50;99.90;;;;;;5117561;28;20086;-77
2022/01/08 08:57:32;;;;;;;7.50;2.25;;;2.10;99.90;;;;;;5137891;28;20035;-80
2022/01/08 08:59:58;;;;;;;5.13;2.10;;;2.30;99.90;;;;;;5117953;28;20070;-78
2022/01/08 09:02:24;;;;;;;4.43;2.10;;;2.80;99.90;;;;;;5134643;27;20043;-81
2022/01/08 09:04:50;;;;;;;8.25;2.47;;;2.40;99.90;;;;;;5116847;28;20052;-80
2022/01/08 09:07:17;;;;;;;7.47;2.20;;;2.60;99.90;;;;;;5118382;28;20051;-80
2022/01/08 09:09:43;;;;;;;4.47;1.92;;;2.90;99.90;;;;;;5118180;28;20054;-80
2022/01/08 09:12:14;;;;;;;5.25;2.20;;;2.40;99.90;;;;;;5117271;28;20047;-80
2022/01/08 09:14:40;;;;;;;3.92;1.52;;;2.30;99.90;;;;;;5118428;28;20085;-80
2022/01/08 09:17:07;;;;;;;7.32;1.85;;;2.30;99.90;;;;;;5118065;28;20048;-81
2022/01/08 09:19:32;;;;;;;4.15;2.00;;;2.40;99.90;;;;;;5116839;28;20432;-79
2022/01/08 09:22:00;;;;;;;4.38;1.77;;;2.50;99.90;;;;;;5100347;28;20090;-81
2022/01/08 09:24:25;;;;;;;6.68;1.98;;;3.20;99.90;;;;;;5116676;28;20052;-81
2022/01/08 09:26:51;;;;;;;5.45;2.35;;;2.40;99.90;;;;;;5117234;28;20047;-79
2022/01/08 09:29:17;;;;;;;6.70;2.15;;;2.60;99.90;;;;;;5117502;28;20044;-80
2022/01/08 09:31:43;;;;;;;5.68;1.65;;;2.60;99.90;;;;;;5099635;28;20047;-81
2022/01/08 09:34:09;;;;;;;5.93;2.00;;;2.40;99.90;;;;;;5099797;28;20051;-79
2022/01/08 09:36:37;;;;;;;4.53;1.67;;;2.70;99.90;;;;;;5118342;28;20050;-78
2022/01/08 09:39:05;;;;;;;9.30;2.38;;;2.40;99.90;;;;;;5117564;28;20048;-80
2022/01/08 09:41:31;;;;;;;2.92;1.67;;;2.70;99.90;;;;;;5118130;28;20046;-79
2022/01/08 09:43:56;;;;;;;5.68;1.98;;;2.60;99.90;;;;;;5116380;28;20040;-78
2022/01/08 09:46:22;;;;;;;7.20;2.25;;;3.20;99.90;;;;;;5100184;28;20047;-79
2022/01/08 09:48:49;;;;;;;6.85;1.92;;;3.00;99.90;;;;;;5116290;28;20121;-81
2022/01/08 09:51:16;;;;;;;6.38;2.03;;;2.90;99.90;;;;;;5117280;28;20039;-81
2022/01/08 09:53:43;;;;;;;6.90;1.60;;;2.40;99.90;;;;;;5099269;28;20104;-79
2022/01/08 09:56:09;;;;;;;5.55;1.83;;;2.60;99.90;;;;;;5116907;28;20055;-80
2022/01/08 09:58:35;;;;;;;5.03;2.05;;;2.70;99.90;;;;;;5116396;28;20058;-81
2022/01/08 10:01:01;;;;;;;2.60;1.50;;;3.00;99.90;;;;;;5116388;28;20398;-79
2022/01/08 10:03:33;;;;;;;6.30;2.17;;;2.90;99.90;;;;;;5116826;28;20384;-79
2022/01/08 10:06:00;;;;;;;4.63;1.92;;;2.80;99.90;;;;;;5115721;28;20059;-79
2022/01/08 10:08:29;;;;;;;3.97;1.98;;;2.80;99.90;;;;;;5116170;28;20094;-82
2022/01/08 10:11:05;;;;;;;8.05;2.30;;;3.20;99.90;;;;;;5117159;28;20376;-81
2022/01/08 10:13:39;;;;;;;8.15;2.25;;;2.80;99.90;;;;;;5117934;28;20047;-81
2022/01/08 10:19:16;;;;;;;6.03;2.17;;;3.80;99.90;;;;;;5115931;28;20097;-82
2022/01/08 10:21:43;;;;;;;5.35;2.20;;;2.80;99.90;;;;;;5116256;28;20093;-82
2022/01/08 10:24:10;;;;;;;6.15;2.15;;;3.30;99.90;;;;;;5117320;28;20044;-80
2022/01/08 10:26:39;;;;;;;5.03;2.20;;;3.40;99.90;;;;;;5115825;28;20092;-80
2022/01/08 10:29:17;;;;;;;6.45;2.20;;;4.30;99.90;;;;;;5115885;28;20066;-81
2022/01/08 10:31:46;;;;;;;4.50;1.88;;;4.00;99.90;;;;;;5116808;28;20043;-81
2022/01/08 10:34:22;;;;;;;4.53;2.53;;;2.90;99.90;;;;;;5117378;28;20083;-80
2022/01/08 10:36:55;;;;;;;6.10;2.38;;;2.80;99.90;;;;;;5116639;28;20047;-81
2022/01/08 10:39:35;;;;;;;8.95;2.78;;;3.30;99.90;;;;;;5116432;28;20104;-80
2022/01/08 10:42:09;;;;;;;5.75;2.47;;;3.10;99.90;;;;;;5115238;28;20503;-82
2022/01/08 10:44:35;;;;;;;6.32;2.65;;;3.10;99.90;;;;;;5116002;28;20041;-82
2022/01/08 10:47:12;;;;;;;4.53;2.53;;;3.40;99.90;;;;;;5115254;28;20044;-81
2022/01/08 10:50:03;;;;;;;5.63;2.50;;;3.10;99.90;;;;;;5116361;28;20043;-82
2022/01/08 10:52:39;;;;;;;7.35;2.60;;;3.00;99.90;;;;;;5115686;28;20055;-81
2022/01/08 10:55:07;;;;;;;6.60;2.90;;;3.10;99.90;;;;;;5098748;28;20371;-81
2022/01/08 10:57:37;;;;;;;7.72;3.28;;;3.20;99.90;;;;;;5115737;28;20361;-81
2022/01/08 11:00:05;;;;;;;5.78;2.55;;;3.20;99.90;;;;;;5116088;28;20472;-81
2022/01/08 11:02:32;;;;;;;5.78;2.88;;;3.20;99.90;;;;;;5116086;28;20055;-81
2022/01/08 11:05:04;;;;;;;8.52;2.60;;;3.10;99.90;;;;;;5097698;28;20063;-81
2022/01/08 11:07:31;;;;;;;6.95;3.20;;;3.10;99.90;;;;;;5115666;28;20065;-82
2022/01/08 11:10:01;;;;;;;5.13;2.72;;;3.60;99.90;;;;;;5115919;28;20040;-81
2022/01/08 11:12:34;;;;;;;8.40;3.67;;;3.20;99.90;;;;;;5097702;28;20048;-83
2022/01/08 11:15:23;;;;;;;7.90;3.58;;;3.40;99.90;;;;;;5115438;28;20047;-80
2022/01/08 11:17:50;;;;;;;7.07;3.40;;;3.30;99.90;;;;;;5114457;28;20087;-82
2022/01/08 11:20:19;;;;;;;7.45;3.90;;;3.90;99.90;;;;;;5114745;28;20051;-82
2022/01/08 11:22:52;;;;;;;5.97;3.60;;;3.20;99.90;;;;;;5115702;28;20092;-82
2022/01/08 11:25:32;;;;;;;7.72;3.88;;;3.40;99.90;;;;;;5114546;28;20040;-80
2022/01/08 11:28:13;;;;;;;7.63;4.10;;;3.40;99.90;;;;;;5097493;28;20063;-81
2022/01/08 11:30:40;;;;;;;6.22;3.90;;;3.30;99.90;;;;;;5116169;28;20506;-81
2022/01/08 11:33:14;;;;;;;12.73;5.10;;;3.70;99.90;;;;;;5114602;28;20086;-82
2022/01/08 11:35:41;;;;;;;7.20;4.38;;;3.80;99.90;;;;;;5115695;28;20044;-82
2022/01/08 11:38:13;;;;;;;7.68;4.75;;;3.30;99.90;;;;;;5115372;28;20044;-83
2022/01/08 11:40:42;;;;;;;9.20;4.35;;;3.40;99.90;;;;;;5112415;28;20126;-77
2022/01/08 11:43:11;;;;;;;8.70;5.25;;;3.90;99.90;;;;;;5112483;28;20480;-83
2022/01/08 11:45:43;;;;;;;8.57;5.45;;;3.50;99.90;;;;;;5113310;28;20464;-83
2022/01/08 11:48:11;;;;;;;9.13;5.30;;;3.40;99.90;;;;;;5112531;28;20093;-83
2022/01/08 11:50:37;;;;;;;8.38;5.18;;;3.40;99.90;;;;;;5112522;28;20082;-77
2022/01/08 11:53:19;;;;;;;8.20;5.40;;;3.80;99.90;;;;;;5111132;28;20372;-83
2022/01/08 11:55:57;;;;;;;8.25;5.15;;;3.20;99.90;;;;;;5094260;28;20043;-84
2022/01/08 11:58:37;;;;;;;10.70;5.32;;;3.70;99.90;;;;;;5110917;28;20096;-79
2022/01/08 12:01:06;;;;;;;9.02;5.50;;;4.50;99.90;;;;;;5111428;28;20043;-83
2022/01/08 12:03:50;;;;;;;9.00;5.20;;;4.20;99.90;;;;;;5094204;28;20056;-83
2022/01/08 12:06:30;;;;;;;9.43;5.05;;;3.80;99.90;;;;;;5110568;28;20052;-84
2022/01/08 12:09:07;;;;;;;8.93;4.95;;;3.50;99.90;;;;;;5094630;28;20169;-83
2022/01/08 12:11:36;;;;;;;8.27;5.18;;;3.90;99.90;;;;;;5094364;28;20068;-84
2022/01/08 12:14:10;;;;;;;9.20;5.18;;;3.50;99.90;;;;;;5111518;28;20051;-84
2022/01/08 12:16:40;;;;;;;9.30;5.40;;;3.60;99.90;;;;;;5112386;28;20051;-84
2022/01/08 12:19:09;;;;;;;13.40;5.18;;;3.60;99.90;;;;;;5111997;28;20083;-82
2022/01/08 12:21:42;;;;;;;9.60;5.38;;;4.10;99.90;;;;;;5111285;28;20112;-85
2022/01/08 12:24:26;;;;;;;10.70;5.07;;;3.80;99.90;;;;;;5112079;28;20104;-84
2022/01/08 12:27:01;;;;;;;8.98;4.78;;;3.70;99.90;;;;;;5112883;28;20051;-84
2022/01/08 12:29:37;;;;;;;10.75;5.50;;;3.80;99.90;;;;;;5099948;28;20055;-83
2022/01/08 12:32:36;;;;;;;12.02;5.43;;;4.10;99.90;;;;;;5118643;28;20043;-80
2022/01/08 12:35:02;;;;;;;10.45;5.28;;;3.80;99.90;;;;;;5113330;28;20043;-84
2022/01/08 12:37:40;;;;;;;8.30;5.32;;;3.80;99.90;;;;;;5112256;28;20116;-84
2022/01/08 12:40:10;;;;;;;8.35;5.43;;;3.80;99.90;;;;;;5114099;28;20051;-82
2022/01/08 12:42:39;;;;;;;7.35;5.47;;;3.90;99.90;;;;;;5113597;28;20122;-83
2022/01/08 12:45:29;;;;;;;11.57;6.07;;;4.70;99.90;;;;;;5111983;28;20050;-84
2022/01/08 12:48:04;;;;;;;8.27;5.60;;;3.80;99.90;;;;;;5095570;28;20047;-83
2022/01/08 12:50:43;;;;;;;11.65;6.40;;;3.90;99.90;;;;;;5113251;28;20061;-79
2022/01/08 12:53:33;;;;;;;10.77;6.10;;;3.90;99.90;;;;;;5112052;28;20043;-82
2022/01/08 12:55:58;;;;;;;11.30;6.78;;;4.00;99.90;;;;;;5098753;28;20389;-82
2022/01/08 12:58:30;;;;;;;11.25;6.95;;;3.90;99.90;;;;;;5113170;28;20047;-83
2022/01/08 13:01:08;;;;;;;11.48;6.97;;;3.90;99.90;;;;;;5113679;28;20090;-83
2022/01/08 13:03:43;;;;;;;12.57;7.25;;;4.30;99.90;;;;;;5112107;28;20039;-84
2022/01/08 13:06:12;;;;;;;12.20;6.78;;;4.60;99.90;;;;;;5128861;28;20066;-82
2022/01/08 13:08:42;;;;;;;8.90;6.85;;;3.90;99.90;;;;;;5134783;28;20128;-81
2022/01/08 13:11:10;;;;;;;14.15;7.70;;;4.00;99.90;;;;;;5116787;28;20035;-83
2022/01/08 13:13:41;;;;;;;11.27;8.20;;;5.20;99.90;;;;;;5098853;28;20115;-83
2022/01/08 13:16:12;;;;;;;11.40;6.88;;;3.90;99.90;;;;;;5098696;28;20049;-78
2022/01/08 13:18:38;;;;;;;13.07;9.13;;;4.10;99.90;;;;;;5115512;28;20443;-87
2022/01/08 13:21:06;;;;;;;15.35;8.23;;;3.80;99.90;;;;;;5098743;28;20051;-80
2022/01/08 13:23:31;;;;;;;12.13;8.57;;;4.00;99.90;;;;;;5115482;28;20051;-83
2022/01/08 13:25:58;;;;;;;12.52;8.32;;;3.80;99.90;;;;;;5133173;28;20043;-84